sensor_id;sensor_type;location;lat;lon;timestamp;P1;durP1;ratioP1;P2;durP2;ratioP2
65581;SDS011;52231;40.090;18.348;2022-08-18T00:00:01;18.92;;;8.10;;
65581;SDS011;52231;40.090;18.348;2022-08-18T00:02:31;15.63;;;8.40;;
65581;SDS011;52231;40.090;18.348;2022-08-18T00:04:59;14.73;;;8.90;;
65581;SDS011;52231;40.090;18.348;2022-08-18T00:07:29;18.27;;;8.40;;
65581;SDS011;52231;40.090;18.348;2022-08-18T00:09:59;17.65;;;8.82;;
65581;SDS011;52231;40.090;18.348;2022-08-18T00:12:32;16.85;;;7.82;;
65581;SDS011;52231;40.090;18.348;2022-08-18T00:15:05;18.77;;;8.50;;
65581;SDS011;52231;40.090;18.348;2022-08-18T00:17:54;14.90;;;8.57;;
65581;SDS011;52231;40.090;18.348;2022-08-18T00:20:23;18.45;;;8.93;;
65581;SDS011;52231;40.090;18.348;2022-08-18T00:22:51;17.20;;;8.60;;
65581;SDS011;52231;40.090;18.348;2022-08-18T00:25:23;16.48;;;8.95;;
65581;SDS011;52231;40.090;18.348;2022-08-18T00:27:51;15.10;;;8.70;;
65581;SDS011;52231;40.090;18.348;2022-08-18T00:30:20;19.15;;;9.80;;
65581;SDS011;52231;40.090;18.348;2022-08-18T00:32:50;16.02;;;10.23;;
65581;SDS011;52231;40.090;18.348;2022-08-18T00:35:42;18.33;;;9.50;;
65581;SDS011;52231;40.090;18.348;2022-08-18T00:38:10;15.82;;;8.73;;
65581;SDS011;52231;40.090;18.348;2022-08-18T00:40:43;16.77;;;9.20;;
65581;SDS011;52231;40.090;18.348;2022-08-18T00:43:27;18.83;;;9.45;;
65581;SDS011;52231;40.090;18.348;2022-08-18T00:46:08;17.70;;;9.43;;
65581;SDS011;52231;40.090;18.348;2022-08-18T00:48:43;16.50;;;10.00;;
65581;SDS011;52231;40.090;18.348;2022-08-18T00:51:14;17.77;;;9.55;;
65581;SDS011;52231;40.090;18.348;2022-08-18T00:53:47;17.33;;;10.23;;
65581;SDS011;52231;40.090;18.348;2022-08-18T00:56:43;18.00;;;10.25;;
65581;SDS011;52231;40.090;18.348;2022-08-18T01:01:58;22.17;;;10.40;;
65581;SDS011;52231;40.090;18.348;2022-08-18T01:04:37;20.73;;;10.98;;
65581;SDS011;52231;40.090;18.348;2022-08-18T01:07:15;19.48;;;9.82;;
65581;SDS011;52231;40.090;18.348;2022-08-18T01:09:47;19.20;;;8.70;;
65581;SDS011;52231;40.090;18.348;2022-08-18T01:12:18;18.10;;;9.88;;
65581;SDS011;52231;40.090;18.348;2022-08-18T01:14:49;17.25;;;8.55;;
65581;SDS011;52231;40.090;18.348;2022-08-18T01:17:18;18.65;;;8.85;;
65581;SDS011;52231;40.090;18.348;2022-08-18T01:20:06;18.02;;;9.57;;
65581;SDS011;52231;40.090;18.348;2022-08-18T01:25:35;16.60;;;9.63;;
65581;SDS011;52231;40.090;18.348;2022-08-18T01:28:23;21.02;;;9.52;;
65581;SDS011;52231;40.090;18.348;2022-08-18T01:30:52;17.33;;;10.13;;
65581;SDS011;52231;40.090;18.348;2022-08-18T01:33:26;17.90;;;10.10;;
65581;SDS011;52231;40.090;18.348;2022-08-18T01:36:09;18.27;;;9.90;;
65581;SDS011;52231;40.090;18.348;2022-08-18T01:38:41;16.92;;;10.38;;
65581;SDS011;52231;40.090;18.348;2022-08-18T01:41:10;20.17;;;10.88;;
65581;SDS011;52231;40.090;18.348;2022-08-18T01:43:39;18.83;;;9.70;;
65581;SDS011;52231;40.090;18.348;2022-08-18T01:48:38;16.70;;;9.35;;
65581;SDS011;52231;40.090;18.348;2022-08-18T01:51:07;18.85;;;10.77;;
65581;SDS011;52231;40.090;18.348;2022-08-18T01:53:37;20.60;;;10.32;;
65581;SDS011;52231;40.090;18.348;2022-08-18T01:56:06;18.60;;;11.50;;
65581;SDS011;52231;40.090;18.348;2022-08-18T01:58:35;21.48;;;10.07;;
65581;SDS011;52231;40.090;18.348;2022-08-18T02:01:03;19.73;;;10.20;;
65581;SDS011;52231;40.090;18.348;2022-08-18T02:03:36;20.02;;;9.45;;
65581;SDS011;52231;40.090;18.348;2022-08-18T02:06:29;15.57;;;8.50;;
65581;SDS011;52231;40.090;18.348;2022-08-18T02:08:58;18.50;;;9.80;;
65581;SDS011;52231;40.090;18.348;2022-08-18T02:11:27;18.65;;;11.20;;
65581;SDS011;52231;40.090;18.348;2022-08-18T02:13:55;18.92;;;10.02;;
65581;SDS011;52231;40.090;18.348;2022-08-18T02:16:24;17.92;;;10.13;;
65581;SDS011;52231;40.090;18.348;2022-08-18T02:18:52;17.15;;;10.25;;
65581;SDS011;52231;40.090;18.348;2022-08-18T02:21:21;20.65;;;10.23;;
65581;SDS011;52231;40.090;18.348;2022-08-18T02:23:49;18.00;;;11.32;;
65581;SDS011;52231;40.090;18.348;2022-08-18T02:26:17;16.80;;;10.52;;
65581;SDS011;52231;40.090;18.348;2022-08-18T02:28:46;18.45;;;10.77;;
65581;SDS011;52231;40.090;18.348;2022-08-18T02:31:16;17.80;;;9.93;;
65581;SDS011;52231;40.090;18.348;2022-08-18T02:33:46;19.95;;;10.52;;
65581;SDS011;52231;40.090;18.348;2022-08-18T02:36:14;18.17;;;10.18;;
65581;SDS011;52231;40.090;18.348;2022-08-18T02:38:43;19.88;;;11.15;;
65581;SDS011;52231;40.090;18.348;2022-08-18T02:43:41;21.63;;;10.00;;
65581;SDS011;52231;40.090;18.348;2022-08-18T02:46:09;19.45;;;10.05;;
65581;SDS011;52231;40.090;18.348;2022-08-18T02:51:07;15.57;;;9.80;;
65581;SDS011;52231;40.090;18.348;2022-08-18T02:53:39;18.70;;;11.23;;
65581;SDS011;52231;40.090;18.348;2022-08-18T02:56:11;17.48;;;9.93;;
65581;SDS011;52231;40.090;18.348;2022-08-18T02:58:50;17.70;;;9.95;;
65581;SDS011;52231;40.090;18.348;2022-08-18T03:01:23;17.38;;;10.65;;
65581;SDS011;52231;40.090;18.348;2022-08-18T03:04:16;18.08;;;9.68;;
65581;SDS011;52231;40.090;18.348;2022-08-18T03:06:49;22.08;;;10.68;;
65581;SDS011;52231;40.090;18.348;2022-08-18T03:11:45;19.52;;;9.88;;
65581;SDS011;52231;40.090;18.348;2022-08-18T03:14:16;19.70;;;9.60;;
65581;SDS011;52231;40.090;18.348;2022-08-18T03:16:45;20.65;;;10.20;;
65581;SDS011;52231;40.090;18.348;2022-08-18T03:19:14;16.25;;;9.73;;
65581;SDS011;52231;40.090;18.348;2022-08-18T03:21:45;15.20;;;9.02;;
65581;SDS011;52231;40.090;18.348;2022-08-18T03:24:14;14.75;;;9.15;;
65581;SDS011;52231;40.090;18.348;2022-08-18T03:26:45;18.25;;;9.07;;
65581;SDS011;52231;40.090;18.348;2022-08-18T03:29:14;17.48;;;10.25;;
65581;SDS011;52231;40.090;18.348;2022-08-18T03:31:42;18.20;;;9.48;;
65581;SDS011;52231;40.090;18.348;2022-08-18T03:34:11;18.15;;;10.07;;
65581;SDS011;52231;40.090;18.348;2022-08-18T03:36:43;18.60;;;11.70;;
65581;SDS011;52231;40.090;18.348;2022-08-18T03:39:12;21.30;;;10.80;;
65581;SDS011;52231;40.090;18.348;2022-08-18T03:41:41;19.13;;;10.82;;
65581;SDS011;52231;40.090;18.348;2022-08-18T03:44:13;18.20;;;9.75;;
65581;SDS011;52231;40.090;18.348;2022-08-18T03:46:42;17.08;;;9.20;;
65581;SDS011;52231;40.090;18.348;2022-08-18T03:49:12;19.83;;;10.13;;
65581;SDS011;52231;40.090;18.348;2022-08-18T03:51:42;16.38;;;9.57;;
65581;SDS011;52231;40.090;18.348;2022-08-18T03:54:14;20.90;;;10.27;;
65581;SDS011;52231;40.090;18.348;2022-08-18T03:56:44;16.90;;;9.77;;
65581;SDS011;52231;40.090;18.348;2022-08-18T03:59:14;20.05;;;10.63;;
65581;SDS011;52231;40.090;18.348;2022-08-18T04:01:45;19.25;;;11.68;;
65581;SDS011;52231;40.090;18.348;2022-08-18T04:04:25;19.33;;;10.93;;
65581;SDS011;52231;40.090;18.348;2022-08-18T04:09:33;16.98;;;9.95;;
65581;SDS011;52231;40.090;18.348;2022-08-18T04:12:05;21.60;;;11.50;;
65581;SDS011;52231;40.090;18.348;2022-08-18T04:14:45;20.73;;;11.70;;
65581;SDS011;52231;40.090;18.348;2022-08-18T04:17:16;20.05;;;11.85;;
65581;SDS011;52231;40.090;18.348;2022-08-18T04:19:50;21.98;;;11.98;;
65581;SDS011;52231;40.090;18.348;2022-08-18T04:22:20;19.92;;;10.85;;
65581;SDS011;52231;40.090;18.348;2022-08-18T04:24:49;21.05;;;12.18;;
65581;SDS011;52231;40.090;18.348;2022-08-18T04:27:18;17.45;;;10.63;;
65581;SDS011;52231;40.090;18.348;2022-08-18T04:29:47;18.33;;;11.18;;
65581;SDS011;52231;40.090;18.348;2022-08-18T04:32:16;21.17;;;12.45;;
65581;SDS011;52231;40.090;18.348;2022-08-18T04:34:45;19.77;;;11.68;;
65581;SDS011;52231;40.090;18.348;2022-08-18T04:39:42;18.30;;;11.23;;
65581;SDS011;52231;40.090;18.348;2022-08-18T04:42:12;20.10;;;11.23;;
65581;SDS011;52231;40.090;18.348;2022-08-18T04:44:41;20.23;;;12.20;;
65581;SDS011;52231;40.090;18.348;2022-08-18T04:47:09;24.20;;;11.80;;
65581;SDS011;52231;40.090;18.348;2022-08-18T04:49:39;21.13;;;11.13;;
65581;SDS011;52231;40.090;18.348;2022-08-18T04:52:11;18.88;;;10.52;;
65581;SDS011;52231;40.090;18.348;2022-08-18T04:54:57;24.77;;;11.80;;
65581;SDS011;52231;40.090;18.348;2022-08-18T04:57:28;20.15;;;12.60;;
65581;SDS011;52231;40.090;18.348;2022-08-18T04:59:58;18.58;;;10.75;;
65581;SDS011;52231;40.090;18.348;2022-08-18T05:02:26;19.05;;;11.57;;
65581;SDS011;52231;40.090;18.348;2022-08-18T05:04:55;20.23;;;11.35;;
65581;SDS011;52231;40.090;18.348;2022-08-18T05:07:24;20.02;;;11.07;;
65581;SDS011;52231;40.090;18.348;2022-08-18T05:09:53;16.80;;;10.95;;
65581;SDS011;52231;40.090;18.348;2022-08-18T05:12:21;23.83;;;11.82;;
65581;SDS011;52231;40.090;18.348;2022-08-18T05:17:18;19.30;;;10.52;;
65581;SDS011;52231;40.090;18.348;2022-08-18T05:19:46;15.45;;;10.07;;
65581;SDS011;52231;40.090;18.348;2022-08-18T05:22:15;17.75;;;9.32;;
65581;SDS011;52231;40.090;18.348;2022-08-18T05:24:48;16.50;;;9.52;;
65581;SDS011;52231;40.090;18.348;2022-08-18T05:27:17;16.15;;;8.82;;
65581;SDS011;52231;40.090;18.348;2022-08-18T05:29:45;14.98;;;9.35;;
65581;SDS011;52231;40.090;18.348;2022-08-18T05:32:16;16.55;;;8.68;;
65581;SDS011;52231;40.090;18.348;2022-08-18T05:34:44;14.40;;;8.18;;
65581;SDS011;52231;40.090;18.348;2022-08-18T05:37:21;11.93;;;7.47;;
65581;SDS011;52231;40.090;18.348;2022-08-18T05:40:00;12.38;;;8.05;;
65581;SDS011;52231;40.090;18.348;2022-08-18T05:42:38;12.70;;;6.97;;
65581;SDS011;52231;40.090;18.348;2022-08-18T05:45:08;16.88;;;7.95;;
65581;SDS011;52231;40.090;18.348;2022-08-18T05:47:41;16.30;;;6.95;;
65581;SDS011;52231;40.090;18.348;2022-08-18T05:50:13;13.23;;;6.43;;
65581;SDS011;52231;40.090;18.348;2022-08-18T05:52:57;13.18;;;6.63;;
65581;SDS011;52231;40.090;18.348;2022-08-18T05:55:38;12.77;;;7.38;;
65581;SDS011;52231;40.090;18.348;2022-08-18T05:58:40;12.40;;;6.93;;
65581;SDS011;52231;40.090;18.348;2022-08-18T06:01:17;13.05;;;6.55;;
65581;SDS011;52231;40.090;18.348;2022-08-18T06:03:52;10.73;;;5.93;;
65581;SDS011;52231;40.090;18.348;2022-08-18T06:06:24;14.77;;;5.63;;
65581;SDS011;52231;40.090;18.348;2022-08-18T06:09:12;12.27;;;4.95;;
65581;SDS011;52231;40.090;18.348;2022-08-18T06:11:51;9.85;;;4.50;;
65581;SDS011;52231;40.090;18.348;2022-08-18T06:14:23;12.35;;;4.68;;
65581;SDS011;52231;40.090;18.348;2022-08-18T06:24:51;11.48;;;4.80;;
65581;SDS011;52231;40.090;18.348;2022-08-18T06:28:02;8.60;;;4.20;;
65581;SDS011;52231;40.090;18.348;2022-08-18T06:35:54;10.10;;;4.47;;
65581;SDS011;52231;40.090;18.348;2022-08-18T06:38:34;11.30;;;5.03;;
65581;SDS011;52231;40.090;18.348;2022-08-18T06:46:46;15.52;;;5.63;;
65581;SDS011;52231;40.090;18.348;2022-08-18T06:52:55;12.27;;;4.78;;
65581;SDS011;52231;40.090;18.348;2022-08-18T06:55:35;12.23;;;4.90;;
65581;SDS011;52231;40.090;18.348;2022-08-18T06:58:19;9.55;;;4.07;;
65581;SDS011;52231;40.090;18.348;2022-08-18T07:00:54;8.52;;;3.60;;
65581;SDS011;52231;40.090;18.348;2022-08-18T07:08:39;9.98;;;4.05;;
65581;SDS011;52231;40.090;18.348;2022-08-18T07:11:11;8.50;;;3.85;;
65581;SDS011;52231;40.090;18.348;2022-08-18T07:13:44;6.68;;;3.42;;
65581;SDS011;52231;40.090;18.348;2022-08-18T07:19:10;11.63;;;3.60;;
65581;SDS011;52231;40.090;18.348;2022-08-18T07:22:07;9.07;;;3.33;;
65581;SDS011;52231;40.090;18.348;2022-08-18T07:24:45;8.77;;;3.28;;
65581;SDS011;52231;40.090;18.348;2022-08-18T07:30:06;9.77;;;3.80;;
65581;SDS011;52231;40.090;18.348;2022-08-18T07:38:10;8.23;;;3.05;;
65581;SDS011;52231;40.090;18.348;2022-08-18T07:41:10;9.90;;;3.10;;
65581;SDS011;52231;40.090;18.348;2022-08-18T07:44:49;6.30;;;2.85;;
65581;SDS011;52231;40.090;18.348;2022-08-18T07:47:00;8.98;;;3.58;;
65581;SDS011;52231;40.090;18.348;2022-08-18T07:49:53;10.00;;;3.60;;
65581;SDS011;52231;40.090;18.348;2022-08-18T07:52:43;7.97;;;2.95;;
65581;SDS011;52231;40.090;18.348;2022-08-18T07:55:34;18.42;;;5.43;;
65581;SDS011;52231;40.090;18.348;2022-08-18T08:03:30;8.27;;;3.00;;
65581;SDS011;52231;40.090;18.348;2022-08-18T08:06:43;8.68;;;2.45;;
65581;SDS011;52231;40.090;18.348;2022-08-18T08:12:34;12.70;;;2.88;;
65581;SDS011;52231;40.090;18.348;2022-08-18T08:15:25;7.78;;;2.35;;
65581;SDS011;52231;40.090;18.348;2022-08-18T08:20:56;9.93;;;3.25;;
65581;SDS011;52231;40.090;18.348;2022-08-18T08:34:31;9.57;;;3.08;;
65581;SDS011;52231;40.090;18.348;2022-08-18T08:37:43;11.13;;;4.10;;
65581;SDS011;52231;40.090;18.348;2022-08-18T08:40:22;7.07;;;2.22;;
65581;SDS011;52231;40.090;18.348;2022-08-18T08:43:01;7.82;;;2.65;;
65581;SDS011;52231;40.090;18.348;2022-08-18T08:48:46;6.13;;;2.10;;
65581;SDS011;52231;40.090;18.348;2022-08-18T08:51:36;7.57;;;2.45;;
65581;SDS011;52231;40.090;18.348;2022-08-18T08:57:04;9.85;;;2.63;;
65581;SDS011;52231;40.090;18.348;2022-08-18T08:59:33;9.95;;;2.22;;
65581;SDS011;52231;40.090;18.348;2022-08-18T09:05:17;9.48;;;2.65;;
65581;SDS011;52231;40.090;18.348;2022-08-18T09:08:06;7.40;;;2.28;;
65581;SDS011;52231;40.090;18.348;2022-08-18T09:10:51;5.78;;;2.13;;
65581;SDS011;52231;40.090;18.348;2022-08-18T09:21:52;8.90;;;2.47;;
65581;SDS011;52231;40.090;18.348;2022-08-18T09:24:38;12.90;;;2.65;;
65581;SDS011;52231;40.090;18.348;2022-08-18T09:36:17;8.63;;;2.53;;
65581;SDS011;52231;40.090;18.348;2022-08-18T09:38:48;6.03;;;2.05;;
65581;SDS011;52231;40.090;18.348;2022-08-18T09:41:47;7.45;;;2.30;;
65581;SDS011;52231;40.090;18.348;2022-08-18T09:49:52;8.35;;;2.38;;
65581;SDS011;52231;40.090;18.348;2022-08-18T09:57:22;6.20;;;2.20;;
65581;SDS011;52231;40.090;18.348;2022-08-18T10:13:06;7.75;;;2.42;;
65581;SDS011;52231;40.090;18.348;2022-08-18T10:29:48;9.30;;;2.35;;
65581;SDS011;52231;40.090;18.348;2022-08-18T10:32:22;7.65;;;2.33;;
65581;SDS011;52231;40.090;18.348;2022-08-18T10:35:03;6.28;;;2.35;;
65581;SDS011;52231;40.090;18.348;2022-08-18T10:37:35;9.27;;;2.60;;
65581;SDS011;52231;40.090;18.348;2022-08-18T10:42:51;10.82;;;2.30;;
65581;SDS011;52231;40.090;18.348;2022-08-18T10:48:07;7.53;;;2.45;;
65581;SDS011;52231;40.090;18.348;2022-08-18T10:50:50;7.80;;;2.28;;
65581;SDS011;52231;40.090;18.348;2022-08-18T10:56:42;8.60;;;2.22;;
65581;SDS011;52231;40.090;18.348;2022-08-18T11:01:55;11.85;;;3.10;;
65581;SDS011;52231;40.090;18.348;2022-08-18T11:04:39;7.03;;;2.40;;
65581;SDS011;52231;40.090;18.348;2022-08-18T11:07:11;4.60;;;2.25;;
65581;SDS011;52231;40.090;18.348;2022-08-18T11:09:49;8.20;;;2.35;;
65581;SDS011;52231;40.090;18.348;2022-08-18T11:18:18;6.55;;;2.42;;
65581;SDS011;52231;40.090;18.348;2022-08-18T11:26:35;6.45;;;2.25;;
65581;SDS011;52231;40.090;18.348;2022-08-18T11:32:05;6.25;;;2.30;;
65581;SDS011;52231;40.090;18.348;2022-08-18T11:37:32;7.55;;;2.40;;
65581;SDS011;52231;40.090;18.348;2022-08-18T12:07:14;6.75;;;1.98;;
65581;SDS011;52231;40.090;18.348;2022-08-18T12:09:47;5.82;;;2.28;;
65581;SDS011;52231;40.090;18.348;2022-08-18T12:12:46;7.03;;;2.30;;
65581;SDS011;52231;40.090;18.348;2022-08-18T12:17:46;6.22;;;2.45;;
65581;SDS011;52231;40.090;18.348;2022-08-18T12:20:14;10.50;;;2.53;;
65581;SDS011;52231;40.090;18.348;2022-08-18T12:22:44;8.57;;;2.38;;
65581;SDS011;52231;40.090;18.348;2022-08-18T12:25:15;7.40;;;2.40;;
65581;SDS011;52231;40.090;18.348;2022-08-18T12:27:45;8.57;;;2.80;;
65581;SDS011;52231;40.090;18.348;2022-08-18T12:30:14;6.05;;;2.60;;
65581;SDS011;52231;40.090;18.348;2022-08-18T12:32:43;5.45;;;1.92;;
65581;SDS011;52231;40.090;18.348;2022-08-18T12:35:13;4.68;;;1.95;;
65581;SDS011;52231;40.090;18.348;2022-08-18T12:37:43;6.70;;;2.40;;
65581;SDS011;52231;40.090;18.348;2022-08-18T12:40:27;5.25;;;2.20;;
65581;SDS011;52231;40.090;18.348;2022-08-18T12:42:56;5.28;;;2.25;;
65581;SDS011;52231;40.090;18.348;2022-08-18T12:45:25;6.55;;;2.20;;
65581;SDS011;52231;40.090;18.348;2022-08-18T12:47:54;6.25;;;2.10;;
65581;SDS011;52231;40.090;18.348;2022-08-18T12:50:23;6.47;;;2.20;;
65581;SDS011;52231;40.090;18.348;2022-08-18T12:52:52;6.43;;;2.10;;
65581;SDS011;52231;40.090;18.348;2022-08-18T12:55:21;7.03;;;2.20;;
65581;SDS011;52231;40.090;18.348;2022-08-18T12:57:50;5.50;;;2.05;;
65581;SDS011;52231;40.090;18.348;2022-08-18T13:00:20;4.45;;;2.00;;
65581;SDS011;52231;40.090;18.348;2022-08-18T13:02:49;6.50;;;2.10;;
65581;SDS011;52231;40.090;18.348;2022-08-18T13:05:37;5.50;;;2.15;;
65581;SDS011;52231;40.090;18.348;2022-08-18T13:08:08;7.15;;;2.30;;
65581;SDS011;52231;40.090;18.348;2022-08-18T13:11:07;8.70;;;2.75;;
65581;SDS011;52231;40.090;18.348;2022-08-18T13:13:37;7.30;;;2.25;;
65581;SDS011;52231;40.090;18.348;2022-08-18T13:16:30;6.32;;;2.63;;
65581;SDS011;52231;40.090;18.348;2022-08-18T13:19:00;5.90;;;2.50;;
65581;SDS011;52231;40.090;18.348;2022-08-18T13:21:30;6.40;;;2.45;;
65581;SDS011;52231;40.090;18.348;2022-08-18T13:23:58;7.55;;;2.30;;
65581;SDS011;52231;40.090;18.348;2022-08-18T13:26:30;6.05;;;2.10;;
65581;SDS011;52231;40.090;18.348;2022-08-18T13:29:01;6.80;;;2.10;;
65581;SDS011;52231;40.090;18.348;2022-08-18T13:31:30;6.13;;;2.35;;
65581;SDS011;52231;40.090;18.348;2022-08-18T13:33:59;9.95;;;4.10;;
65581;SDS011;52231;40.090;18.348;2022-08-18T13:36:28;11.27;;;2.83;;
65581;SDS011;52231;40.090;18.348;2022-08-18T13:39:11;5.95;;;2.67;;
65581;SDS011;52231;40.090;18.348;2022-08-18T13:41:40;9.70;;;2.90;;
65581;SDS011;52231;40.090;18.348;2022-08-18T13:44:09;9.63;;;3.30;;
65581;SDS011;52231;40.090;18.348;2022-08-18T13:46:39;7.05;;;2.83;;
65581;SDS011;52231;40.090;18.348;2022-08-18T13:49:18;13.82;;;2.92;;
65581;SDS011;52231;40.090;18.348;2022-08-18T13:51:49;8.02;;;2.90;;
65581;SDS011;52231;40.090;18.348;2022-08-18T13:54:22;8.20;;;2.95;;
65581;SDS011;52231;40.090;18.348;2022-08-18T13:56:56;6.53;;;2.67;;
65581;SDS011;52231;40.090;18.348;2022-08-18T13:59:26;8.40;;;3.08;;
65581;SDS011;52231;40.090;18.348;2022-08-18T14:01:59;6.57;;;2.58;;
65581;SDS011;52231;40.090;18.348;2022-08-18T14:04:29;10.77;;;2.70;;
65581;SDS011;52231;40.090;18.348;2022-08-18T14:06:59;5.75;;;2.50;;
65581;SDS011;52231;40.090;18.348;2022-08-18T14:09:29;7.38;;;2.78;;
65581;SDS011;52231;40.090;18.348;2022-08-18T14:11:58;10.73;;;2.88;;
65581;SDS011;52231;40.090;18.348;2022-08-18T14:14:26;10.50;;;2.92;;
65581;SDS011;52231;40.090;18.348;2022-08-18T14:16:55;9.70;;;2.80;;
65581;SDS011;52231;40.090;18.348;2022-08-18T14:19:23;10.90;;;3.05;;
65581;SDS011;52231;40.090;18.348;2022-08-18T14:22:11;9.00;;;2.53;;
65581;SDS011;52231;40.090;18.348;2022-08-18T14:24:58;9.32;;;3.10;;
65581;SDS011;52231;40.090;18.348;2022-08-18T14:27:45;7.60;;;2.72;;
65581;SDS011;52231;40.090;18.348;2022-08-18T14:30:14;21.55;;;11.15;;
65581;SDS011;52231;40.090;18.348;2022-08-18T14:32:44;22.80;;;9.68;;
65581;SDS011;52231;40.090;18.348;2022-08-18T14:35:13;12.02;;;4.03;;
65581;SDS011;52231;40.090;18.348;2022-08-18T14:37:46;13.90;;;6.53;;
65581;SDS011;52231;40.090;18.348;2022-08-18T14:40:15;29.80;;;17.08;;
65581;SDS011;52231;40.090;18.348;2022-08-18T14:42:43;15.85;;;7.25;;
65581;SDS011;52231;40.090;18.348;2022-08-18T14:45:12;24.63;;;14.13;;
65581;SDS011;52231;40.090;18.348;2022-08-18T14:47:41;20.05;;;10.20;;
65581;SDS011;52231;40.090;18.348;2022-08-18T14:50:10;19.35;;;9.43;;
65581;SDS011;52231;40.090;18.348;2022-08-18T14:52:40;18.98;;;9.63;;
65581;SDS011;52231;40.090;18.348;2022-08-18T14:55:13;21.17;;;10.15;;
65581;SDS011;52231;40.090;18.348;2022-08-18T14:57:42;13.68;;;5.72;;
65581;SDS011;52231;40.090;18.348;2022-08-18T15:00:13;9.60;;;4.35;;
65581;SDS011;52231;40.090;18.348;2022-08-18T15:02:45;22.13;;;12.60;;
65581;SDS011;52231;40.090;18.348;2022-08-18T15:05:16;11.27;;;4.60;;
65581;SDS011;52231;40.090;18.348;2022-08-18T15:07:44;9.07;;;2.70;;
65581;SDS011;52231;40.090;18.348;2022-08-18T15:10:14;7.85;;;2.88;;
65581;SDS011;52231;40.090;18.348;2022-08-18T15:12:43;7.15;;;3.10;;
65581;SDS011;52231;40.090;18.348;2022-08-18T15:15:12;10.38;;;3.17;;
65581;SDS011;52231;40.090;18.348;2022-08-18T15:17:40;8.25;;;2.35;;
65581;SDS011;52231;40.090;18.348;2022-08-18T15:20:09;13.10;;;5.35;;
65581;SDS011;52231;40.090;18.348;2022-08-18T15:22:39;8.35;;;3.20;;
65581;SDS011;52231;40.090;18.348;2022-08-18T15:25:27;6.15;;;2.67;;
65581;SDS011;52231;40.090;18.348;2022-08-18T15:28:08;10.30;;;4.57;;
65581;SDS011;52231;40.090;18.348;2022-08-18T15:30:38;16.77;;;9.20;;
65581;SDS011;52231;40.090;18.348;2022-08-18T15:33:07;10.75;;;5.28;;
65581;SDS011;52231;40.090;18.348;2022-08-18T15:35:36;10.75;;;4.03;;
65581;SDS011;52231;40.090;18.348;2022-08-18T15:38:27;8.15;;;2.88;;
65581;SDS011;52231;40.090;18.348;2022-08-18T15:40:57;10.38;;;3.78;;
65581;SDS011;52231;40.090;18.348;2022-08-18T15:43:27;8.73;;;3.03;;
65581;SDS011;52231;40.090;18.348;2022-08-18T15:46:00;9.50;;;3.22;;
65581;SDS011;52231;40.090;18.348;2022-08-18T15:48:29;11.35;;;3.25;;
65581;SDS011;52231;40.090;18.348;2022-08-18T15:50:57;8.73;;;2.83;;
65581;SDS011;52231;40.090;18.348;2022-08-18T15:53:25;7.35;;;2.35;;
65581;SDS011;52231;40.090;18.348;2022-08-18T15:55:54;10.82;;;2.42;;
65581;SDS011;52231;40.090;18.348;2022-08-18T15:58:23;16.15;;;3.00;;
65581;SDS011;52231;40.090;18.348;2022-08-18T16:00:51;10.05;;;3.30;;
65581;SDS011;52231;40.090;18.348;2022-08-18T16:03:20;11.05;;;3.00;;
65581;SDS011;52231;40.090;18.348;2022-08-18T16:05:49;9.55;;;2.65;;
65581;SDS011;52231;40.090;18.348;2022-08-18T16:08:21;13.40;;;3.00;;
65581;SDS011;52231;40.090;18.348;2022-08-18T16:10:52;8.82;;;2.80;;
65581;SDS011;52231;40.090;18.348;2022-08-18T16:13:21;6.53;;;2.50;;
65581;SDS011;52231;40.090;18.348;2022-08-18T16:15:52;9.95;;;2.38;;
65581;SDS011;52231;40.090;18.348;2022-08-18T16:18:20;9.90;;;2.25;;
65581;SDS011;52231;40.090;18.348;2022-08-18T16:20:49;9.25;;;2.80;;
65581;SDS011;52231;40.090;18.348;2022-08-18T16:23:17;7.38;;;2.28;;
65581;SDS011;52231;40.090;18.348;2022-08-18T16:25:45;8.57;;;2.40;;
65581;SDS011;52231;40.090;18.348;2022-08-18T16:28:13;10.65;;;2.78;;
65581;SDS011;52231;40.090;18.348;2022-08-18T16:30:42;9.35;;;2.70;;
65581;SDS011;52231;40.090;18.348;2022-08-18T16:33:10;10.77;;;2.50;;
65581;SDS011;52231;40.090;18.348;2022-08-18T16:35:38;15.25;;;3.65;;
65581;SDS011;52231;40.090;18.348;2022-08-18T16:38:07;11.80;;;2.80;;
65581;SDS011;52231;40.090;18.348;2022-08-18T16:40:36;8.75;;;2.70;;
65581;SDS011;52231;40.090;18.348;2022-08-18T16:43:04;15.38;;;3.40;;
65581;SDS011;52231;40.090;18.348;2022-08-18T16:45:35;15.55;;;2.90;;
65581;SDS011;52231;40.090;18.348;2022-08-18T16:48:04;11.27;;;3.35;;
65581;SDS011;52231;40.090;18.348;2022-08-18T16:50:38;15.82;;;5.40;;
65581;SDS011;52231;40.090;18.348;2022-08-18T16:53:08;13.50;;;4.57;;
65581;SDS011;52231;40.090;18.348;2022-08-18T16:55:37;18.75;;;4.97;;
65581;SDS011;52231;40.090;18.348;2022-08-18T16:58:05;15.00;;;4.20;;
65581;SDS011;52231;40.090;18.348;2022-08-18T17:00:53;15.15;;;4.80;;
65581;SDS011;52231;40.090;18.348;2022-08-18T17:03:59;14.50;;;5.30;;
65581;SDS011;52231;40.090;18.348;2022-08-18T17:06:34;14.98;;;6.07;;
65581;SDS011;52231;40.090;18.348;2022-08-18T17:09:03;12.85;;;4.13;;
65581;SDS011;52231;40.090;18.348;2022-08-18T17:11:32;11.73;;;4.72;;
65581;SDS011;52231;40.090;18.348;2022-08-18T17:14:00;12.10;;;4.00;;
65581;SDS011;52231;40.090;18.348;2022-08-18T17:16:28;18.13;;;3.70;;
65581;SDS011;52231;40.090;18.348;2022-08-18T17:18:57;9.65;;;3.17;;
65581;SDS011;52231;40.090;18.348;2022-08-18T17:21:29;12.55;;;2.95;;
65581;SDS011;52231;40.090;18.348;2022-08-18T17:24:21;10.23;;;3.10;;
65581;SDS011;52231;40.090;18.348;2022-08-18T17:29:46;9.80;;;2.88;;
65581;SDS011;52231;40.090;18.348;2022-08-18T17:32:27;10.90;;;3.22;;
65581;SDS011;52231;40.090;18.348;2022-08-18T17:35:11;11.70;;;2.70;;
65581;SDS011;52231;40.090;18.348;2022-08-18T17:37:50;12.57;;;3.15;;
65581;SDS011;52231;40.090;18.348;2022-08-18T17:40:39;9.93;;;3.05;;
65581;SDS011;52231;40.090;18.348;2022-08-18T17:43:14;14.90;;;3.13;;
65581;SDS011;52231;40.090;18.348;2022-08-18T17:48:54;13.93;;;4.10;;
65581;SDS011;52231;40.090;18.348;2022-08-18T17:51:32;11.27;;;3.75;;
65581;SDS011;52231;40.090;18.348;2022-08-18T17:57:00;9.90;;;3.08;;
65581;SDS011;52231;40.090;18.348;2022-08-18T17:59:37;10.95;;;2.92;;
65581;SDS011;52231;40.090;18.348;2022-08-18T18:02:24;10.35;;;3.35;;
65581;SDS011;52231;40.090;18.348;2022-08-18T18:04:58;7.55;;;2.63;;
65581;SDS011;52231;40.090;18.348;2022-08-18T18:07:35;15.55;;;3.95;;
65581;SDS011;52231;40.090;18.348;2022-08-18T18:10:25;10.48;;;3.10;;
65581;SDS011;52231;40.090;18.348;2022-08-18T18:16:36;9.50;;;3.22;;
65581;SDS011;52231;40.090;18.348;2022-08-18T18:18:58;8.07;;;3.30;;
65581;SDS011;52231;40.090;18.348;2022-08-18T18:21:33;9.55;;;3.08;;
65581;SDS011;52231;40.090;18.348;2022-08-18T18:24:22;10.05;;;3.22;;
65581;SDS011;52231;40.090;18.348;2022-08-18T18:26:57;9.80;;;3.15;;
65581;SDS011;52231;40.090;18.348;2022-08-18T18:29:27;11.10;;;3.33;;
65581;SDS011;52231;40.090;18.348;2022-08-18T18:32:02;10.98;;;3.00;;
65581;SDS011;52231;40.090;18.348;2022-08-18T18:34:36;12.10;;;3.42;;
65581;SDS011;52231;40.090;18.348;2022-08-18T18:37:31;12.88;;;4.57;;
65581;SDS011;52231;40.090;18.348;2022-08-18T18:40:03;22.63;;;8.18;;
65581;SDS011;52231;40.090;18.348;2022-08-18T18:42:34;12.75;;;4.63;;